Time;durP1;ratioP1;P1;durP2;ratioP2;P2;SDS_P1;SDS_P2;PMS_P1;PMS_P2;Temp;Humidity;BMP_temperature;BMP_pressure;BME280_temperature;BME280_humidity;BME280_pressure;Samples;Min_cycle;Max_cycle;Signal;HPM_P1;HPM_P2
2022/03/31 00:00:46;;;;;;;21.77;16.98;;;;;;;;;;5062385;28;20197;-68
2022/03/31 00:03:14;;;;;;;28.42;18.75;;;;;;;;;;5062320;28;20406;-68
2022/03/31 00:05:40;;;;;;;23.38;17.00;;;;;;;;;;5062116;28;20544;-68
2022/03/31 00:08:07;;;;;;;25.50;18.10;;;;;;;;;;5062068;28;20534;-68
2022/03/31 00:10:34;;;;;;;22.35;17.02;;;;;;;;;;5062327;28;20204;-68
2022/03/31 00:13:01;;;;;;;23.17;16.85;;;;;;;;;;5062061;28;20223;-68
2022/03/31 00:15:28;;;;;;;23.88;17.48;;;;;;;;;;5062101;28;20223;-68
2022/03/31 00:17:56;;;;;;;25.67;17.83;;;;;;;;;;5061840;28;20422;-68
2022/03/31 00:20:23;;;;;;;25.42;18.15;;;;;;;;;;5062011;28;20197;-68
2022/03/31 00:22:49;;;;;;;25.00;17.83;;;;;;;;;;5062195;28;20427;-68
2022/03/31 00:25:15;;;;;;;22.48;16.83;;;;;;;;;;5062074;28;20436;-68
2022/03/31 00:27:42;;;;;;;25.13;18.27;;;;;;;;;;5061783;28;20197;-68
2022/03/31 00:30:09;;;;;;;26.50;18.52;;;;;;;;;;5061969;28;20197;-68
2022/03/31 00:32:36;;;;;;;23.02;17.08;;;;;;;;;;5061837;28;20225;-68
2022/03/31 00:35:04;;;;;;;24.45;17.35;;;;;;;;;;5062268;28;20268;-68
2022/03/31 00:37:30;;;;;;;24.52;18.17;;;;;;;;;;5061991;28;20204;-68
2022/03/31 00:39:57;;;;;;;27.92;19.75;;;;;;;;;;5062105;28;20550;-68
2022/03/31 00:42:23;;;;;;;27.73;19.17;;;;;;;;;;5061942;28;20193;-68
2022/03/31 00:44:50;;;;;;;25.77;18.30;;;;;;;;;;5062294;28;20197;-68
2022/03/31 00:47:17;;;;;;;23.38;17.60;;;;;;;;;;5061401;28;20205;-68
2022/03/31 00:49:43;;;;;;;22.92;17.00;;;;;;;;;;5061992;28;20520;-68
2022/03/31 00:52:11;;;;;;;26.10;18.48;;;;;;;;;;5061828;28;20566;-68
2022/03/31 00:54:38;;;;;;;25.02;18.13;;;;;;;;;;5061735;28;20197;-68
2022/03/31 00:57:06;;;;;;;22.17;16.55;;;;;;;;;;5061378;28;20311;-68
2022/03/31 00:59:32;;;;;;;23.42;18.02;;;;;;;;;;5061745;28;20201;-68
2022/03/31 01:01:59;;;;;;;27.08;18.92;;;;;;;;;;5065234;28;20197;-68
2022/03/31 01:04:26;;;;;;;24.52;17.85;;;;;;;;;;5065886;28;20400;-68
2022/03/31 01:06:52;;;;;;;24.17;18.13;;;;;;;;;;5065242;28;20220;-68
2022/03/31 01:09:20;;;;;;;26.25;18.80;;;;;;;;;;5065367;28;20205;-68
2022/03/31 01:11:46;;;;;;;25.30;17.25;;;;;;;;;;5065368;28;20220;-68
2022/03/31 01:14:13;;;;;;;24.55;18.05;;;;;;;;;;5065377;28;20197;-68
2022/03/31 01:16:39;;;;;;;22.02;17.05;;;;;;;;;;5064871;28;20243;-68
2022/03/31 01:19:06;;;;;;;24.10;17.65;;;;;;;;;;5065616;28;20243;-68
2022/03/31 01:21:36;;;;;;;22.25;16.48;;;;;;;;;;5065308;28;20197;-68
2022/03/31 01:24:04;;;;;;;24.13;18.40;;;;;;;;;;5065167;28;20201;-68
2022/03/31 01:26:30;;;;;;;25.70;17.85;;;;;;;;;;5064876;28;20205;-68
2022/03/31 01:28:56;;;;;;;26.00;17.05;;;;;;;;;;5064991;28;20251;-68
2022/03/31 01:31:22;;;;;;;24.75;16.65;;;;;;;;;;5064752;28;20197;-68
2022/03/31 01:33:49;;;;;;;21.92;17.08;;;;;;;;;;5065121;28;20370;-68
2022/03/31 01:36:15;;;;;;;22.73;16.65;;;;;;;;;;5064711;28;20267;-68
2022/03/31 01:38:42;;;;;;;21.17;15.50;;;;;;;;;;5064939;28;20193;-68
2022/03/31 01:41:09;;;;;;;21.67;15.73;;;;;;;;;;5064690;28;20204;-68
2022/03/31 01:43:36;;;;;;;24.75;16.08;;;;;;;;;;5064702;28;20211;-68
2022/03/31 01:46:02;;;;;;;19.65;15.20;;;;;;;;;;5064436;28;20209;-68
2022/03/31 01:48:28;;;;;;;19.88;14.90;;;;;;;;;;5064749;28;20205;-68
2022/03/31 01:50:55;;;;;;;20.38;15.48;;;;;;;;;;5064733;28;20201;-68
2022/03/31 01:53:21;;;;;;;19.50;14.48;;;;;;;;;;5063872;28;20236;-68
2022/03/31 01:55:47;;;;;;;19.00;14.85;;;;;;;;;;5064663;28;20235;-68
2022/03/31 01:58:15;;;;;;;20.58;15.25;;;;;;;;;;5064442;28;20204;-68
2022/03/31 02:00:41;;;;;;;18.67;14.98;;;;;;;;;;5064509;28;20201;-68
2022/03/31 02:03:07;;;;;;;18.05;14.40;;;;;;;;;;5064320;28;20193;-68
2022/03/31 02:05:34;;;;;;;19.70;14.95;;;;;;;;;;5064701;28;20263;-68
2022/03/31 02:08:00;;;;;;;19.50;14.70;;;;;;;;;;5064552;28;20208;-68
2022/03/31 02:10:26;;;;;;;18.15;14.60;;;;;;;;;;5064410;28;20242;-68
2022/03/31 02:12:53;;;;;;;18.40;14.68;;;;;;;;;;5064076;28;20540;-68
2022/03/31 02:15:21;;;;;;;18.95;14.90;;;;;;;;;;5064199;28;20224;-68
2022/03/31 02:17:47;;;;;;;19.52;15.30;;;;;;;;;;5064111;28;20205;-68
2022/03/31 02:20:14;;;;;;;18.92;14.85;;;;;;;;;;5064160;28;20196;-68
2022/03/31 02:22:40;;;;;;;17.08;13.90;;;;;;;;;;5063882;28;20272;-68
2022/03/31 02:25:08;;;;;;;19.90;14.73;;;;;;;;;;5064066;28;20267;-68
2022/03/31 02:27:34;;;;;;;18.45;15.02;;;;;;;;;;5063801;28;20205;-68
2022/03/31 02:30:01;;;;;;;18.83;13.35;;;;;;;;;;5064009;28;20204;-68
2022/03/31 02:32:28;;;;;;;15.93;13.98;;;;;;;;;;5063728;28;20448;-68
2022/03/31 02:34:55;;;;;;;16.13;13.70;;;;;;;;;;5063735;28;20197;-68
2022/03/31 02:37:21;;;;;;;15.93;13.60;;;;;;;;;;5063591;28;20574;-68
2022/03/31 02:39:47;;;;;;;15.70;13.05;;;;;;;;;;5063860;28;20258;-68
2022/03/31 02:42:14;;;;;;;16.15;13.93;;;;;;;;;;5064002;28;20400;-68
2022/03/31 02:44:41;;;;;;;16.45;13.82;;;;;;;;;;5063779;28;20204;-68
2022/03/31 02:47:07;;;;;;;14.82;12.75;;;;;;;;;;5063346;28;20311;-68
2022/03/31 02:49:35;;;;;;;14.95;13.20;;;;;;;;;;5063372;28;20519;-68
2022/03/31 02:52:01;;;;;;;16.60;13.13;;;;;;;;;;5063474;28;20555;-68
2022/03/31 02:57:12;;;;;;;15.35;12.80;;;;;;;;;;5063167;28;20191;-68
2022/03/31 02:59:38;;;;;;;16.40;13.15;;;;;;;;;;5063237;28;20197;-68
2022/03/31 03:02:04;;;;;;;15.10;13.45;;;;;;;;;;5063255;28;20243;-67
2022/03/31 03:04:31;;;;;;;15.48;13.27;;;;;;;;;;5063103;28;20200;-68
2022/03/31 03:06:58;;;;;;;16.45;13.80;;;;;;;;;;5063014;28;20220;-68
2022/03/31 03:09:25;;;;;;;17.05;13.65;;;;;;;;;;5063225;28;20197;-68
2022/03/31 03:11:51;;;;;;;15.48;13.45;;;;;;;;;;5063364;28;20203;-68
2022/03/31 03:14:18;;;;;;;16.80;13.82;;;;;;;;;;5062981;28;20419;-68
2022/03/31 03:16:44;;;;;;;14.85;13.10;;;;;;;;;;5062709;28;20223;-68
2022/03/31 03:19:11;;;;;;;15.15;13.07;;;;;;;;;;5062958;28;20417;-68
2022/03/31 03:21:37;;;;;;;15.27;13.25;;;;;;;;;;5063082;28;20197;-68
2022/03/31 03:24:05;;;;;;;14.23;12.63;;;;;;;;;;5062499;28;20197;-68
2022/03/31 03:26:32;;;;;;;15.82;12.65;;;;;;;;;;5062530;28;20205;-68
2022/03/31 03:28:58;;;;;;;15.75;13.02;;;;;;;;;;5062693;28;20205;-68
2022/03/31 03:31:24;;;;;;;15.38;12.77;;;;;;;;;;5062936;28;20197;-68
2022/03/31 03:33:50;;;;;;;18.77;15.18;;;;;;;;;;5062700;28;20221;-68
2022/03/31 03:36:17;;;;;;;17.30;13.85;;;;;;;;;;5062591;28;20529;-68
2022/03/31 03:38:43;;;;;;;17.65;14.50;;;;;;;;;;5062797;28;20197;-68
2022/03/31 03:41:12;;;;;;;14.85;13.00;;;;;;;;;;5062537;28;20505;-68
2022/03/31 03:43:39;;;;;;;17.10;13.77;;;;;;;;;;5062478;28;20197;-68
2022/03/31 03:46:05;;;;;;;18.92;14.80;;;;;;;;;;5062548;28;20243;-68
2022/03/31 03:48:31;;;;;;;15.05;13.43;;;;;;;;;;5062425;28;20201;-68
2022/03/31 03:50:58;;;;;;;17.05;13.75;;;;;;;;;;5062527;28;20527;-68
2022/03/31 03:53:25;;;;;;;20.15;15.10;;;;;;;;;;5062326;28;20217;-68
2022/03/31 03:55:51;;;;;;;16.30;14.15;;;;;;;;;;5062698;28;20369;-68
2022/03/31 03:58:19;;;;;;;16.83;14.50;;;;;;;;;;5061998;28;20365;-68
2022/03/31 04:00:45;;;;;;;16.48;14.60;;;;;;;;;;5062496;28;20200;-68
2022/03/31 04:03:12;;;;;;;19.80;14.85;;;;;;;;;;5062195;28;20201;-68
2022/03/31 04:05:38;;;;;;;16.40;14.50;;;;;;;;;;5062122;28;20217;-68
2022/03/31 04:08:05;;;;;;;16.15;13.80;;;;;;;;;;5062148;28;20197;-68
2022/03/31 04:10:33;;;;;;;18.25;14.70;;;;;;;;;;5062136;28;20236;-67
2022/03/31 04:13:00;;;;;;;14.48;12.98;;;;;;;;;;5061954;28;20255;-68
2022/03/31 04:15:27;;;;;;;15.05;13.45;;;;;;;;;;5062289;28;20197;-68
2022/03/31 04:17:54;;;;;;;17.58;14.02;;;;;;;;;;5061942;28;20197;-68
2022/03/31 04:20:20;;;;;;;16.80;14.85;;;;;;;;;;5062221;28;20196;-68
2022/03/31 04:22:46;;;;;;;17.25;13.52;;;;;;;;;;5062524;28;20193;-67
2022/03/31 04:25:13;;;;;;;18.30;14.77;;;;;;;;;;5061920;28;20212;-68
2022/03/31 04:27:40;;;;;;;15.93;13.75;;;;;;;;;;5061800;28;20251;-67
2022/03/31 04:30:07;;;;;;;17.38;14.77;;;;;;;;;;5062022;28;20234;-68
2022/03/31 04:32:35;;;;;;;16.85;14.50;;;;;;;;;;5061968;28;20228;-68
2022/03/31 04:35:01;;;;;;;17.55;15.38;;;;;;;;;;5062632;28;20219;-68
2022/03/31 04:37:28;;;;;;;16.10;13.30;;;;;;;;;;5065824;28;20258;-68
2022/03/31 04:39:54;;;;;;;15.15;13.43;;;;;;;;;;5065871;28;20200;-68
2022/03/31 04:42:20;;;;;;;16.50;14.38;;;;;;;;;;5066136;28;20520;-68
2022/03/31 04:44:47;;;;;;;18.10;14.77;;;;;;;;;;5066030;28;20204;-68
2022/03/31 04:47:13;;;;;;;19.05;14.32;;;;;;;;;;5065510;28;20204;-68
2022/03/31 04:49:40;;;;;;;14.18;12.75;;;;;;;;;;5065906;28;20197;-68
2022/03/31 04:52:08;;;;;;;18.75;13.90;;;;;;;;;;5065877;28;20200;-68
2022/03/31 04:54:34;;;;;;;16.02;14.18;;;;;;;;;;5065627;28;20263;-68
2022/03/31 04:57:00;;;;;;;14.90;12.98;;;;;;;;;;5065753;28;20197;-68
2022/03/31 04:59:27;;;;;;;15.70;13.48;;;;;;;;;;5065787;28;20197;-68
2022/03/31 05:01:53;;;;;;;15.98;13.95;;;;;;;;;;5065711;28;20201;-68
2022/03/31 05:04:19;;;;;;;16.35;13.63;;;;;;;;;;5065420;28;20201;-68
2022/03/31 05:06:47;;;;;;;18.17;14.68;;;;;;;;;;5065150;28;20255;-68
2022/03/31 05:09:13;;;;;;;15.80;14.15;;;;;;;;;;5065714;28;20208;-68
2022/03/31 05:11:39;;;;;;;15.95;14.25;;;;;;;;;;5065592;28;20197;-68
2022/03/31 05:14:06;;;;;;;18.20;14.25;;;;;;;;;;5065419;28;20221;-68
2022/03/31 05:16:32;;;;;;;16.30;14.55;;;;;;;;;;5065107;28;20204;-68
2022/03/31 05:18:58;;;;;;;17.33;15.48;;;;;;;;;;5065275;28;20197;-68
2022/03/31 05:21:24;;;;;;;17.50;14.55;;;;;;;;;;5065149;28;20278;-68
2022/03/31 05:23:52;;;;;;;17.38;13.70;;;;;;;;;;5065216;28;20193;-68
2022/03/31 05:26:18;;;;;;;16.23;14.00;;;;;;;;;;5064858;28;20396;-68
2022/03/31 05:28:44;;;;;;;17.58;14.13;;;;;;;;;;5065285;28;20428;-68
2022/03/31 05:31:11;;;;;;;14.85;13.27;;;;;;;;;;5065190;28;20411;-68
2022/03/31 05:33:37;;;;;;;19.50;15.50;;;;;;;;;;5065078;28;20675;-68
2022/03/31 05:36:04;;;;;;;18.98;14.90;;;;;;;;;;5064661;28;20427;-68
2022/03/31 05:38:30;;;;;;;18.00;14.15;;;;;;;;;;5065080;28;20197;-68
2022/03/31 05:40:57;;;;;;;17.45;14.48;;;;;;;;;;5064587;28;20377;-68
2022/03/31 05:43:24;;;;;;;16.85;14.77;;;;;;;;;;5064622;28;20384;-68
2022/03/31 05:45:50;;;;;;;16.10;14.20;;;;;;;;;;5063695;28;20204;-68
2022/03/31 05:48:17;;;;;;;15.70;14.00;;;;;;;;;;5064065;28;20197;-68
2022/03/31 05:50:43;;;;;;;18.13;15.52;;;;;;;;;;5064764;28;20388;-68
2022/03/31 05:53:09;;;;;;;17.35;14.32;;;;;;;;;;5064216;28;20415;-68
2022/03/31 05:55:36;;;;;;;15.77;13.82;;;;;;;;;;5064236;28;20208;-68
2022/03/31 05:58:03;;;;;;;17.38;15.20;;;;;;;;;;5057307;28;20255;-67
2022/03/31 06:00:30;;;;;;;16.15;14.45;;;;;;;;;;5063392;28;20239;-67
2022/03/31 06:02:56;;;;;;;17.83;15.07;;;;;;;;;;5070007;28;20204;-60
2022/03/31 06:05:22;;;;;;;16.85;14.60;;;;;;;;;;5058436;28;20598;-61
2022/03/31 06:07:51;;;;;;;17.02;14.63;;;;;;;;;;5072496;28;20273;-60
2022/03/31 06:10:18;;;;;;;17.25;14.82;;;;;;;;;;5078096;28;20257;-60
2022/03/31 06:12:44;;;;;;;19.13;14.15;;;;;;;;;;5075724;28;20234;-59
2022/03/31 06:15:13;;;;;;;17.30;14.95;;;;;;;;;;5058458;28;20209;-60
2022/03/31 06:17:41;;;;;;;19.00;16.00;;;;;;;;;;5038400;28;20217;-61
2022/03/31 06:20:08;;;;;;;16.10;14.00;;;;;;;;;;5038137;28;20332;-60
2022/03/31 06:22:34;;;;;;;17.88;15.40;;;;;;;;;;5038648;28;20398;-60
2022/03/31 06:25:00;;;;;;;18.05;14.85;;;;;;;;;;5038609;28;20281;-60
2022/03/31 06:27:27;;;;;;;18.50;15.85;;;;;;;;;;5038305;28;20567;-60
2022/03/31 06:29:53;;;;;;;19.00;15.18;;;;;;;;;;5038119;28;20521;-60
2022/03/31 06:32:21;;;;;;;20.10;16.20;;;;;;;;;;5045090;28;20213;-60
2022/03/31 06:34:47;;;;;;;16.77;14.73;;;;;;;;;;5058348;28;20224;-62
2022/03/31 06:37:14;;;;;;;18.33;15.38;;;;;;;;;;5057901;28;20209;-61
2022/03/31 06:39:40;;;;;;;16.38;14.68;;;;;;;;;;5057530;28;20555;-60
2022/03/31 06:42:07;;;;;;;17.30;15.02;;;;;;;;;;5057794;28;20274;-62
2022/03/31 06:44:33;;;;;;;17.70;15.80;;;;;;;;;;5057822;28;20212;-61
2022/03/31 06:46:59;;;;;;;18.17;15.80;;;;;;;;;;5057469;28;20370;-61
2022/03/31 06:49:27;;;;;;;20.48;16.20;;;;;;;;;;5057119;28;20216;-61
2022/03/31 06:51:53;;;;;;;18.80;15.38;;;;;;;;;;5057799;28;20209;-61
2022/03/31 06:54:19;;;;;;;18.35;15.73;;;;;;;;;;5057632;28;20458;-60
2022/03/31 06:56:46;;;;;;;17.40;15.50;;;;;;;;;;5057988;28;20574;-60
2022/03/31 06:59:12;;;;;;;17.35;15.15;;;;;;;;;;5056938;28;20201;-61
2022/03/31 07:01:39;;;;;;;21.98;16.08;;;;;;;;;;5058494;28;20217;-60
2022/03/31 07:04:06;;;;;;;21.52;16.63;;;;;;;;;;5077763;28;20204;-60
2022/03/31 07:06:34;;;;;;;21.63;17.08;;;;;;;;;;5077382;28;20394;-60
2022/03/31 07:09:00;;;;;;;18.13;15.60;;;;;;;;;;5077002;28;20212;-61
2022/03/31 07:11:26;;;;;;;22.15;17.52;;;;;;;;;;5077450;28;20216;-59
2022/03/31 07:13:53;;;;;;;20.25;16.77;;;;;;;;;;5077374;28;20227;-61
2022/03/31 07:16:19;;;;;;;20.02;16.60;;;;;;;;;;5077118;28;20218;-60
2022/03/31 07:18:45;;;;;;;17.58;15.25;;;;;;;;;;5077775;28;20514;-61
2022/03/31 07:21:12;;;;;;;18.80;16.58;;;;;;;;;;5078161;28;20218;-61
2022/03/31 07:23:40;;;;;;;18.02;15.88;;;;;;;;;;5076890;28;20205;-60
2022/03/31 07:26:06;;;;;;;18.70;16.17;;;;;;;;;;5076415;28;20223;-61
2022/03/31 07:28:32;;;;;;;20.58;16.63;;;;;;;;;;5075965;28;20212;-61
2022/03/31 07:30:59;;;;;;;18.70;16.33;;;;;;;;;;5076168;28;20208;-61
2022/03/31 07:33:25;;;;;;;22.00;17.52;;;;;;;;;;5076057;28;20458;-61
2022/03/31 07:35:52;;;;;;;18.80;16.42;;;;;;;;;;5076270;28;20216;-61
2022/03/31 07:38:18;;;;;;;23.30;17.13;;;;;;;;;;5075943;28;20215;-59
2022/03/31 07:40:46;;;;;;;20.50;17.02;;;;;;;;;;5075816;28;20219;-61
2022/03/31 07:43:12;;;;;;;18.65;16.55;;;;;;;;;;5076032;28;20204;-60
2022/03/31 07:45:39;;;;;;;20.10;16.33;;;;;;;;;;5076316;28;20212;-61
2022/03/31 07:48:07;;;;;;;23.23;16.98;;;;;;;;;;5075753;28;20208;-61
2022/03/31 07:50:34;;;;;;;20.67;16.50;;;;;;;;;;5076455;28;20280;-60
2022/03/31 07:53:01;;;;;;;22.65;17.55;;;;;;;;;;5065750;28;20254;-61
2022/03/31 07:55:27;;;;;;;21.77;17.65;;;;;;;;;;5056210;28;20610;-61
2022/03/31 07:57:55;;;;;;;20.65;16.50;;;;;;;;;;5055443;28;20213;-61
2022/03/31 08:00:21;;;;;;;21.38;16.70;;;;;;;;;;5055789;28;20217;-60
2022/03/31 08:02:49;;;;;;;26.17;18.38;;;;;;;;;;5055768;28;20244;-61
2022/03/31 08:05:16;;;;;;;22.63;17.50;;;;;;;;;;5055530;28;20240;-61
2022/03/31 08:07:42;;;;;;;22.13;17.05;;;;;;;;;;5055405;28;20284;-60
2022/03/31 08:10:09;;;;;;;21.17;17.25;;;;;;;;;;5055103;28;20217;-60
2022/03/31 08:12:36;;;;;;;22.27;17.08;;;;;;;;;;5055451;28;20217;-59
2022/03/31 08:15:04;;;;;;;20.60;16.88;;;;;;;;;;5055657;28;20605;-60
2022/03/31 08:17:31;;;;;;;22.48;18.02;;;;;;;;;;5055388;28;20205;-61
2022/03/31 08:19:57;;;;;;;22.70;17.05;;;;;;;;;;5055699;28;20216;-61
2022/03/31 08:22:23;;;;;;;23.58;16.73;;;;;;;;;;5055766;28;20212;-60
2022/03/31 08:24:50;;;;;;;22.33;17.73;;;;;;;;;;5055271;28;20209;-61
2022/03/31 08:27:16;;;;;;;21.08;16.98;;;;;;;;;;5055505;28;20209;-60
2022/03/31 08:29:42;;;;;;;23.23;17.77;;;;;;;;;;5055098;28;20217;-60
2022/03/31 08:32:10;;;;;;;24.70;16.80;;;;;;;;;;5056184;28;20209;-60
2022/03/31 08:34:36;;;;;;;21.35;17.45;;;;;;;;;;5056338;28;20259;-60
2022/03/31 08:37:03;;;;;;;19.67;16.98;;;;;;;;;;5056006;28;20384;-59
2022/03/31 08:39:29;;;;;;;23.75;18.17;;;;;;;;;;5055757;28;20578;-58
2022/03/31 08:41:56;;;;;;;24.40;17.50;;;;;;;;;;5056286;28;20208;-60
2022/03/31 08:44:22;;;;;;;21.25;17.75;;;;;;;;;;5056641;28;20205;-61
2022/03/31 08:46:49;;;;;;;23.90;18.23;;;;;;;;;;5056107;28;20216;-59
2022/03/31 08:49:17;;;;;;;24.63;19.50;;;;;;;;;;5055747;28;20215;-60
2022/03/31 08:51:44;;;;;;;24.30;18.42;;;;;;;;;;5055929;28;20283;-61
2022/03/31 08:54:10;;;;;;;25.27;18.25;;;;;;;;;;5055757;28;20467;-63
2022/03/31 08:56:37;;;;;;;22.48;17.73;;;;;;;;;;5055896;28;20213;-62
2022/03/31 08:59:03;;;;;;;26.85;19.30;;;;;;;;;;5055552;28;20383;-62
2022/03/31 09:01:32;;;;;;;30.05;20.48;;;;;;;;;;5055631;28;20439;-62
2022/03/31 09:03:58;;;;;;;33.97;22.25;;;;;;;;;;5055778;28;20392;-62
2022/03/31 09:06:28;;;;;;;27.55;20.70;;;;;;;;;;5054944;28;20225;-63
2022/03/31 09:08:55;;;;;;;25.80;18.70;;;;;;;;;;5071757;28;20521;-63
2022/03/31 09:11:25;;;;;;;26.35;18.92;;;;;;;;;;5056045;28;20212;-63
2022/03/31 09:13:54;;;;;;;27.83;20.02;;;;;;;;;;5055942;28;20209;-62
2022/03/31 09:16:29;;;;;;;29.33;21.50;;;;;;;;;;5055671;28;20383;-62
2022/03/31 09:18:59;;;;;;;27.20;20.77;;;;;;;;;;5055451;28;20212;-62
2022/03/31 09:21:27;;;;;;;28.52;19.73;;;;;;;;;;5057044;28;20216;-62
2022/03/31 09:23:53;;;;;;;29.63;20.33;;;;;;;;;;5059745;28;20474;-63
2022/03/31 09:26:19;;;;;;;27.88;20.42;;;;;;;;;;5059304;28;20217;-62
2022/03/31 09:28:46;;;;;;;29.23;21.38;;;;;;;;;;5059354;28;20216;-62
2022/03/31 09:31:13;;;;;;;28.38;20.60;;;;;;;;;;5059640;28;20250;-63
2022/03/31 09:33:40;;;;;;;32.83;20.90;;;;;;;;;;5059391;28;20284;-62
2022/03/31 09:36:07;;;;;;;30.27;21.05;;;;;;;;;;5059250;28;20208;-62
2022/03/31 09:38:36;;;;;;;30.98;21.80;;;;;;;;;;5058954;28;20335;-63
2022/03/31 09:41:03;;;;;;;32.58;22.15;;;;;;;;;;5058841;28;20489;-63
2022/03/31 09:43:37;;;;;;;33.92;22.38;;;;;;;;;;5059641;28;20204;-61
2022/03/31 09:46:04;;;;;;;32.58;21.83;;;;;;;;;;5061640;28;20204;-62
2022/03/31 09:48:30;;;;;;;36.78;23.05;;;;;;;;;;5061982;28;20212;-61
2022/03/31 09:50:57;;;;;;;34.95;23.27;;;;;;;;;;5062007;28;20212;-61
2022/03/31 09:53:23;;;;;;;35.00;22.15;;;;;;;;;;5061332;28;20571;-61
2022/03/31 09:55:52;;;;;;;34.88;22.45;;;;;;;;;;5061586;28;20287;-61
2022/03/31 09:58:19;;;;;;;31.40;21.35;;;;;;;;;;5061201;28;20455;-61
2022/03/31 10:00:46;;;;;;;30.45;21.55;;;;;;;;;;5061486;28;20232;-61
2022/03/31 10:03:13;;;;;;;32.58;21.70;;;;;;;;;;5062011;28;20391;-61
2022/03/31 10:05:42;;;;;;;34.33;21.35;;;;;;;;;;5061676;28;20229;-59
2022/03/31 10:08:10;;;;;;;35.67;22.88;;;;;;;;;;5061130;28;20277;-60
2022/03/31 10:10:36;;;;;;;34.83;23.45;;;;;;;;;;5061615;28;20262;-61
2022/03/31 10:13:08;;;;;;;32.00;22.92;;;;;;;;;;5061077;28;20432;-61
2022/03/31 10:15:35;;;;;;;36.33;22.52;;;;;;;;;;5061481;28;21229;-58
2022/03/31 10:18:02;;;;;;;31.70;21.77;;;;;;;;;;5060943;28;20205;-60
2022/03/31 10:20:28;;;;;;;36.05;22.52;;;;;;;;;;5061208;28;20276;-61
2022/03/31 10:25:40;;;;;;;35.08;21.52;;;;;;;;;;5060962;28;20411;-58
2022/03/31 10:28:12;;;;;;;36.80;22.67;;;;;;;;;;5060899;28;20204;-58
2022/03/31 10:30:39;;;;;;;37.55;22.83;;;;;;;;;;5061050;28;20212;-60
2022/03/31 10:33:07;;;;;;;36.35;22.83;;;;;;;;;;5059672;28;20282;-60
2022/03/31 10:35:34;;;;;;;32.80;21.55;;;;;;;;;;5060835;28;20551;-60
2022/03/31 10:38:12;;;;;;;35.40;21.77;;;;;;;;;;5060596;28;20576;-59
2022/03/31 10:40:40;;;;;;;35.15;22.17;;;;;;;;;;5061450;28;20205;-61
2022/03/31 10:43:07;;;;;;;32.35;21.40;;;;;;;;;;5061264;28;20516;-62
2022/03/31 10:45:35;;;;;;;32.45;21.42;;;;;;;;;;5060631;28;20201;-59
2022/03/31 10:48:12;;;;;;;35.50;23.17;;;;;;;;;;5060579;28;20205;-60
2022/03/31 10:50:38;;;;;;;32.35;21.23;;;;;;;;;;5060654;28;20205;-61
2022/03/31 10:53:05;;;;;;;34.90;22.38;;;;;;;;;;5060566;28;20476;-61
2022/03/31 10:55:35;;;;;;;33.45;21.73;;;;;;;;;;5060690;28;20225;-60
2022/03/31 10:58:02;;;;;;;34.08;22.13;;;;;;;;;;5060551;28;20504;-61
2022/03/31 11:00:28;;;;;;;32.38;22.38;;;;;;;;;;5060098;28;20213;-61
2022/03/31 11:02:56;;;;;;;32.35;21.27;;;;;;;;;;5060448;28;20232;-61
2022/03/31 11:05:23;;;;;;;31.45;21.25;;;;;;;;;;5060528;28;20536;-61
2022/03/31 11:07:49;;;;;;;35.72;21.90;;;;;;;;;;5060228;28;20538;-61
2022/03/31 11:10:16;;;;;;;30.83;20.77;;;;;;;;;;5060385;28;20220;-61
2022/03/31 11:12:43;;;;;;;34.03;21.38;;;;;;;;;;5060296;28;20216;-60
2022/03/31 11:15:10;;;;;;;35.03;22.63;;;;;;;;;;5060112;28;20540;-58
2022/03/31 11:17:37;;;;;;;31.95;21.02;;;;;;;;;;5059801;28;20212;-60
2022/03/31 11:20:14;;;;;;;33.75;21.08;;;;;;;;;;5059775;28;20243;-59
2022/03/31 11:22:46;;;;;;;35.13;22.70;;;;;;;;;;5059718;28;20207;-59
2022/03/31 11:25:13;;;;;;;33.85;21.52;;;;;;;;;;5060204;28;20209;-60
2022/03/31 11:27:40;;;;;;;32.55;21.05;;;;;;;;;;5059767;28;20385;-59
2022/03/31 11:30:07;;;;;;;30.13;20.58;;;;;;;;;;5059578;28;20266;-58
2022/03/31 11:32:34;;;;;;;32.22;22.88;;;;;;;;;;5059340;28;20524;-60
2022/03/31 11:35:00;;;;;;;32.88;22.17;;;;;;;;;;5059819;28;20290;-60
2022/03/31 11:37:28;;;;;;;29.70;19.80;;;;;;;;;;5059706;28;20258;-60
2022/03/31 11:39:54;;;;;;;32.03;21.15;;;;;;;;;;5059856;28;20211;-61
2022/03/31 11:42:21;;;;;;;32.78;21.77;;;;;;;;;;5059713;28;20315;-61
2022/03/31 11:44:47;;;;;;;30.08;21.95;;;;;;;;;;5058790;28;20284;-61
2022/03/31 11:47:17;;;;;;;31.42;21.65;;;;;;;;;;5059486;28;20251;-60
2022/03/31 11:49:45;;;;;;;32.20;22.10;;;;;;;;;;5059289;28;20209;-61
2022/03/31 11:52:11;;;;;;;30.73;21.73;;;;;;;;;;5059258;28;20437;-62
2022/03/31 11:54:41;;;;;;;27.95;21.15;;;;;;;;;;5059321;28;20205;-61
2022/03/31 11:57:09;;;;;;;28.88;21.52;;;;;;;;;;5059058;28;20205;-59
2022/03/31 11:59:36;;;;;;;27.92;20.13;;;;;;;;;;5059740;28;20503;-63
2022/03/31 12:02:02;;;;;;;28.73;21.35;;;;;;;;;;5059679;28;20238;-60
2022/03/31 12:04:31;;;;;;;30.25;21.92;;;;;;;;;;5059317;28;20243;-60
2022/03/31 12:06:58;;;;;;;27.67;21.42;;;;;;;;;;5059017;28;20504;-59
2022/03/31 12:09:26;;;;;;;30.30;22.40;;;;;;;;;;5059425;28;20447;-60
2022/03/31 12:11:53;;;;;;;29.67;21.15;;;;;;;;;;5059190;28;20201;-62
2022/03/31 12:14:20;;;;;;;28.42;20.88;;;;;;;;;;5059564;28;20209;-61
2022/03/31 12:16:47;;;;;;;29.70;21.55;;;;;;;;;;5059026;28;20788;-60
2022/03/31 12:19:14;;;;;;;29.85;21.63;;;;;;;;;;5059300;28;20204;-61
2022/03/31 12:21:46;;;;;;;30.02;21.42;;;;;;;;;;5059096;28;20251;-61
2022/03/31 12:24:13;;;;;;;27.55;21.10;;;;;;;;;;5058992;28;20205;-61
2022/03/31 12:26:40;;;;;;;25.25;19.83;;;;;;;;;;5058695;28;20241;-61
2022/03/31 12:29:16;;;;;;;26.25;20.35;;;;;;;;;;5059206;28;20209;-61
2022/03/31 12:31:43;;;;;;;26.73;20.23;;;;;;;;;;5059232;28;20204;-60
2022/03/31 12:34:10;;;;;;;23.63;18.35;;;;;;;;;;5059094;28;20205;-59
2022/03/31 12:36:37;;;;;;;23.13;17.65;;;;;;;;;;5058676;28;20229;-61
2022/03/31 12:39:04;;;;;;;25.48;19.63;;;;;;;;;;5059135;28;20613;-61
2022/03/31 12:41:34;;;;;;;23.17;18.23;;;;;;;;;;5059384;28;20219;-61
2022/03/31 12:44:02;;;;;;;24.20;19.13;;;;;;;;;;5059111;28;20445;-61
2022/03/31 12:46:31;;;;;;;22.17;17.10;;;;;;;;;;5059084;28;20223;-60
2022/03/31 12:48:58;;;;;;;21.75;17.40;;;;;;;;;;5059297;28;20232;-61
2022/03/31 12:51:25;;;;;;;23.23;16.75;;;;;;;;;;5059069;28;20204;-60
2022/03/31 12:53:51;;;;;;;24.95;17.95;;;;;;;;;;5055637;28;20541;-60
2022/03/31 12:56:28;;;;;;;21.77;16.95;;;;;;;;;;5056592;28;20225;-61
2022/03/31 12:58:55;;;;;;;21.08;17.10;;;;;;;;;;5059371;28;20471;-61
2022/03/31 13:01:24;;;;;;;24.30;16.90;;;;;;;;;;5059916;28;20494;-60
2022/03/31 13:03:52;;;;;;;24.85;15.52;;;;;;;;;;5059550;28;20209;-61
2022/03/31 13:06:18;;;;;;;23.38;15.20;;;;;;;;;;5059250;28;20224;-61
2022/03/31 13:08:45;;;;;;;20.10;14.93;;;;;;;;;;5059517;28;20205;-61
2022/03/31 13:11:11;;;;;;;21.10;15.82;;;;;;;;;;5059649;28;20208;-60
2022/03/31 13:13:39;;;;;;;20.63;15.35;;;;;;;;;;5059793;28;20216;-60
2022/03/31 13:16:05;;;;;;;18.52;14.43;;;;;;;;;;5059508;28;20229;-60
2022/03/31 13:18:33;;;;;;;19.75;16.08;;;;;;;;;;5059346;28;20435;-61
2022/03/31 13:21:00;;;;;;;24.35;15.95;;;;;;;;;;5059724;28;20517;-61
2022/03/31 13:23:27;;;;;;;20.50;15.85;;;;;;;;;;5060103;28;20520;-61
2022/03/31 13:25:53;;;;;;;21.10;15.57;;;;;;;;;;5059319;28;21142;-61
2022/03/31 13:28:19;;;;;;;22.30;16.10;;;;;;;;;;5059054;28;20536;-61
2022/03/31 13:30:45;;;;;;;20.90;16.15;;;;;;;;;;5059234;28;20578;-60
2022/03/31 13:33:11;;;;;;;21.35;16.13;;;;;;;;;;5058890;28;20537;-61
2022/03/31 13:35:38;;;;;;;20.40;15.98;;;;;;;;;;5059086;28;20255;-61
2022/03/31 13:38:05;;;;;;;24.63;16.80;;;;;;;;;;5058701;28;20454;-61
2022/03/31 13:40:37;;;;;;;19.67;15.70;;;;;;;;;;5058707;28;20251;-60
2022/03/31 13:43:06;;;;;;;22.17;16.73;;;;;;;;;;5059119;28;20668;-61
2022/03/31 13:45:33;;;;;;;23.98;17.00;;;;;;;;;;5058794;28;20421;-61
2022/03/31 13:47:59;;;;;;;21.23;17.30;;;;;;;;;;5058300;28;20215;-61
2022/03/31 13:50:26;;;;;;;24.73;17.58;;;;;;;;;;5058563;28;20255;-61
2022/03/31 13:55:33;;;;;;;24.77;18.20;;;;;;;;;;5058341;28;20258;-61
2022/03/31 14:03:34;;;;;;;27.98;18.73;;;;;;;;;;5042745;28;20211;-60
2022/03/31 14:06:00;;;;;;;29.67;19.80;;;;;;;;;;5058467;28;20470;-60
2022/03/31 14:08:26;;;;;;;25.05;18.60;;;;;;;;;;5058110;28;20213;-61
2022/03/31 14:10:55;;;;;;;25.45;18.40;;;;;;;;;;5058470;28;20255;-61
2022/03/31 14:13:21;;;;;;;21.95;18.05;;;;;;;;;;5058535;28;20573;-60
2022/03/31 14:15:48;;;;;;;23.42;18.40;;;;;;;;;;5058632;28;20828;-61
2022/03/31 14:18:14;;;;;;;24.75;18.73;;;;;;;;;;5058367;28;20554;-60
2022/03/31 14:20:40;;;;;;;25.60;18.30;;;;;;;;;;5058261;28;20434;-61
2022/03/31 14:23:07;;;;;;;23.73;17.83;;;;;;;;;;5058234;28;20209;-61
2022/03/31 14:25:33;;;;;;;24.88;17.90;;;;;;;;;;5057911;28;20213;-61
2022/03/31 14:28:00;;;;;;;22.58;17.52;;;;;;;;;;5057720;28;20209;-61